Time;durP1;ratioP1;P1;durP2;ratioP2;P2;SDS_P1;SDS_P2;PMS_P1;PMS_P2;Temp;Humidity;BMP_temperature;BMP_pressure;BME280_temperature;BME280_humidity;BME280_pressure;Samples;Min_cycle;Max_cycle;Signal;HPM_P1;HPM_P2
2021/05/23 06:59:04;;;;;;;;;0.75;0.00;;;;;18.02;47.45;101427.16;5116032;27;45346;-68
2021/05/23 07:01:30;;;;;;;;;0.00;0.00;;;;;18.14;47.51;101423.84;5093331;27;45870;-68
2021/05/23 07:03:55;;;;;;;;;0.00;0.00;;;;;18.32;47.03;101432.63;5093203;27;45237;-72
2021/05/23 07:06:21;;;;;;;;;0.00;0.00;;;;;18.52;46.86;101432.47;5096382;27;53445;-77
2021/05/23 07:08:46;;;;;;;;;0.00;0.00;;;;;18.70;46.73;101435.03;5095408;27;45246;-76
2021/05/23 07:11:11;;;;;;;;;0.00;0.00;;;;;18.89;46.56;101437.50;5087737;27;45256;-75
2021/05/23 07:13:37;;;;;;;;;0.75;0.75;;;;;19.07;46.06;101446.25;5077852;27;45300;-75
2021/05/23 07:16:02;;;;;;;;;0.00;0.00;;;;;19.22;45.79;101447.19;5095372;27;45423;-73
2021/05/23 07:18:28;;;;;;;;;0.00;0.00;;;;;19.40;46.12;101438.19;5081741;27;46134;-76
2021/05/23 07:20:55;;;;;;;;;0.00;0.00;;;;;19.54;45.65;101434.69;5094379;27;55978;-75
2021/05/23 07:23:21;;;;;;;;;0.00;0.00;;;;;19.65;45.25;101444.72;5096938;27;45369;-75
2021/05/23 07:25:46;;;;;;;;;0.00;0.00;;;;;19.75;45.22;101437.88;5073341;27;46033;-75
2021/05/23 07:28:12;;;;;;;;;0.00;0.00;;;;;19.87;45.35;101438.06;5070527;27;63943;-75
2021/05/23 07:30:37;;;;;;;;;0.00;0.00;;;;;19.94;45.03;101436.72;5073524;27;45462;-76
2021/05/23 07:33:02;;;;;;;;;0.00;0.00;;;;;20.02;44.62;101436.25;5064983;27;59056;-76
2021/05/23 07:35:28;;;;;;;;;0.00;0.00;;;;;20.09;44.50;101440.25;5078504;27;55844;-76
2021/05/23 07:37:53;;;;;;;;;0.00;0.00;;;;;20.15;44.17;101444.38;5078495;27;45306;-76
2021/05/23 07:40:18;;;;;;;;;0.00;0.00;;;;;20.20;44.84;101447.59;5095921;27;45541;-75
2021/05/23 07:42:44;;;;;;;;;0.00;0.00;;;;;20.24;44.55;101449.16;5092193;27;45336;-75
2021/05/23 07:45:10;;;;;;;;;0.00;0.00;;;;;20.29;44.47;101446.19;5063977;27;45510;-76
2021/05/23 07:47:35;;;;;;;;;0.00;0.00;;;;;20.34;44.31;101449.41;5095166;27;45419;-76
2021/05/23 07:50:01;;;;;;;;;0.00;0.00;;;;;20.39;44.82;101440.25;5094995;27;45282;-75
2021/05/23 07:52:26;;;;;;;;;0.00;0.00;;;;;20.42;44.58;101456.09;5091461;27;45392;-75
2021/05/23 07:54:52;;;;;;;;;0.00;0.00;;;;;20.45;44.73;101456.72;5089445;27;45322;-75
2021/05/23 07:57:17;;;;;;;;;0.00;0.00;;;;;20.46;44.89;101447.78;5091178;27;49685;-79
2021/05/23 07:59:43;;;;;;;;;1.50;1.00;;;;;20.50;44.74;101451.09;5088832;27;45301;-80
2021/05/23 08:02:08;;;;;;;;;0.00;0.00;;;;;20.51;44.62;101462.63;5095111;27;45701;-79
2021/05/23 08:04:33;;;;;;;;;3.50;3.50;;;;;20.54;44.79;101454.44;5095054;27;45333;-85
2021/05/23 08:06:59;;;;;;;;;2.00;1.00;;;;;20.56;44.56;101461.41;5076792;27;66957;-82
2021/05/23 08:09:24;;;;;;;;;2.25;2.00;;;;;20.61;44.39;101457.56;5082641;27;56833;-81
2021/05/23 08:11:50;;;;;;;;;4.00;1.00;;;;;20.64;44.61;101473.38;5065609;28;45394;-85
2021/05/23 08:14:15;;;;;;;;;2.25;1.00;;;;;20.64;44.49;101482.22;5072254;27;46087;-82
2021/05/23 08:16:43;;;;;;;;;1.00;0.00;;;;;20.66;44.52;101488.38;5087366;27;45972;-81
2021/05/23 08:19:09;;;;;;;;;1.00;1.00;;;;;20.66;43.73;101483.03;5080177;27;45612;-84
2021/05/23 08:21:34;;;;;;;;;2.25;2.00;;;;;20.62;43.54;101486.81;5079772;27;45520;-85
2021/05/23 08:24:00;;;;;;;;;0.75;0.75;;;;;20.59;43.46;101489.72;5064187;28;45919;-84
2021/05/23 08:26:26;;;;;;;;;0.75;0.75;;;;;20.59;43.56;101492.38;5063053;28;69243;-77
2021/05/23 08:28:51;;;;;;;;;1.75;0.00;;;;;20.62;43.95;101494.00;5064217;28;45230;-80
2021/05/23 08:31:16;;;;;;;;;1.00;1.00;;;;;20.64;43.51;101486.75;5080164;28;45258;-78
2021/05/23 08:33:42;;;;;;;;;0.50;0.50;;;;;20.64;43.52;101487.56;5078615;27;45467;-80
2021/05/23 08:36:08;;;;;;;;;1.25;1.00;;;;;20.66;43.89;101479.47;5065359;28;45377;-81
2021/05/23 08:38:33;;;;;;;;;0.25;0.00;;;;;20.68;43.72;101483.78;5062313;28;45336;-81
2021/05/23 08:40:59;;;;;;;;;1.25;0.75;;;;;20.68;43.73;101478.44;5062513;28;45713;-80
2021/05/23 08:43:26;;;;;;;;;0.50;0.50;;;;;20.68;43.66;101475.75;5061765;28;45409;-80
2021/05/23 08:45:52;;;;;;;;;0.50;0.00;;;;;20.71;43.58;101471.16;5073445;27;45321;-82
2021/05/23 08:48:18;;;;;;;;;1.25;0.00;;;;;20.72;43.39;101475.56;5073388;28;45362;-83
2021/05/23 08:50:43;;;;;;;;;0.00;0.00;;;;;20.74;43.36;101481.66;5083301;27;45454;-76
2021/05/23 08:53:09;;;;;;;;;1.00;0.00;;;;;20.75;43.38;101470.00;5080182;27;45342;-77
2021/05/23 08:55:38;;;;;;;;;0.00;0.00;;;;;20.75;43.28;101472.69;5081269;27;62615;-78
2021/05/23 14:44:03;;;;;;;;;3.00;0.50;;;;;17.58;42.93;101238.06;5071307;27;45276;-87
2021/05/23 14:46:28;;;;;;;;;0.00;0.00;;;;;17.70;42.05;101240.06;5079968;27;45442;-82
2021/05/23 14:48:54;;;;;;;;;1.00;0.00;;;;;17.80;41.71;101228.91;5056075;28;45289;-82
2021/05/23 14:51:19;;;;;;;;;0.00;0.00;;;;;17.92;41.31;101225.56;5039643;28;49572;-82
2021/05/23 14:53:45;;;;;;;;;0.00;0.00;;;;;18.08;40.78;101216.69;5035776;28;60005;-81
2021/05/23 14:56:10;;;;;;;;;0.00;0.00;;;;;18.24;40.38;101219.34;5020651;28;60865;-81
2021/05/23 14:58:37;;;;;;;;;0.00;0.00;;;;;18.32;40.89;101213.59;5038113;28;45420;-81
2021/05/23 15:01:03;;;;;;;;;2.00;0.00;;;;;18.29;40.11;101198.66;5018966;28;46655;-81
2021/05/23 15:03:29;;;;;;;;;1.00;1.00;;;;;18.25;40.39;101218.41;5056845;28;45446;-81
2021/05/23 15:05:55;;;;;;;;;0.00;0.00;;;;;18.26;40.78;101192.66;5056106;28;45423;-81
2021/05/23 15:08:20;;;;;;;;;2.00;0.50;;;;;18.27;40.02;101211.19;5053792;28;45326;-81
2021/05/23 15:10:45;;;;;;;;;1.00;1.00;;;;;18.31;39.51;101199.44;5053798;28;45479;-81
2021/05/23 15:13:11;;;;;;;;;0.00;0.00;;;;;18.40;39.61;101192.69;5068287;28;46314;-81
2021/05/23 15:15:37;;;;;;;;;1.00;0.00;;;;;18.53;39.33;101187.50;5037625;28;45417;-81
2021/05/23 15:18:02;;;;;;;;;0.00;0.00;;;;;18.54;38.74;101178.56;5034619;28;45435;-81
2021/05/23 15:20:27;;;;;;;;;1.00;1.00;;;;;18.52;39.23;101184.94;5032242;28;55727;-81
2021/05/23 15:22:53;;;;;;;;;0.00;0.00;;;;;18.49;39.23;101178.00;5017917;28;47981;-81
2021/05/23 15:25:19;;;;;;;;;2.00;0.00;;;;;18.43;39.34;101171.22;5050858;28;45276;-81
2021/05/23 15:30:25;;;;;;;;;0.00;0.00;;;;;18.15;39.28;101172.81;5037631;28;45686;-80
2021/05/23 15:32:51;;;;;;;;;0.00;0.00;;;;;18.14;39.57;101165.81;5055505;28;45305;-81
2021/05/23 15:35:16;;;;;;;;;0.00;0.00;;;;;18.19;39.87;101171.75;5038095;28;45291;-82
2021/05/23 15:37:42;;;;;;;;;1.00;0.00;;;;;18.25;39.29;101170.50;5036989;28;54865;-81
2021/05/23 15:40:08;;;;;;;;;0.00;0.00;;;;;18.25;38.95;101165.19;5053497;28;50331;-81
2021/05/23 15:42:33;;;;;;;;;0.00;0.00;;;;;18.24;39.35;101158.16;5036970;28;48417;-82
2021/05/23 15:44:59;;;;;;;;;0.00;0.00;;;;;18.27;39.08;101151.81;5035881;28;60673;-81
2021/05/23 15:47:25;;;;;;;;;1.00;1.00;;;;;18.30;39.17;101154.28;5037451;28;45373;-81
2021/05/23 15:49:50;;;;;;;;;0.00;0.00;;;;;18.32;38.79;101144.41;5054050;28;45758;-81
2021/05/23 15:52:15;;;;;;;;;0.00;0.00;;;;;18.32;39.03;101149.75;5054286;28;46011;-81
2021/05/23 15:54:41;;;;;;;;;0.00;0.00;;;;;18.30;38.95;101155.13;5022848;28;59982;-81
2021/05/23 15:57:07;;;;;;;;;0.00;0.00;;;;;18.28;38.41;101143.72;5037785;28;46587;-81
2021/05/23 15:59:32;;;;;;;;;2.00;0.00;;;;;18.25;38.69;101135.09;5039067;28;45673;-81
2021/05/23 16:01:58;;;;;;;;;0.00;0.00;;;;;18.24;39.10;101130.69;5035983;28;46294;-81
2021/05/23 16:04:23;;;;;;;;;0.00;0.00;;;;;18.26;38.93;101128.81;5016700;28;51509;-81
2021/05/23 16:06:49;;;;;;;;;0.00;0.00;;;;;18.20;38.24;101138.84;5022692;28;55012;-81
2021/05/23 16:09:14;;;;;;;;;0.00;0.00;;;;;18.17;38.59;101138.16;5036030;28;45738;-81
2021/05/23 16:11:39;;;;;;;;;0.00;0.00;;;;;18.17;38.88;101125.72;5037642;28;54749;-81
2021/05/23 16:14:05;;;;;;;;;0.00;0.00;;;;;18.24;38.77;101134.22;5020732;28;45738;-80
2021/05/23 16:16:30;;;;;;;;;0.00;0.00;;;;;18.30;38.89;101127.66;5039184;28;49346;-82
2021/05/23 16:18:56;;;;;;;;;0.50;0.00;;;;;18.38;38.86;101130.72;5022891;28;46588;-80
2021/05/23 16:21:22;;;;;;;;;0.00;0.00;;;;;18.47;37.85;101123.97;5038696;28;45503;-81
2021/05/23 16:23:48;;;;;;;;;0.00;0.00;;;;;18.53;38.11;101130.75;5034949;28;45432;-80
2021/05/23 16:26:13;;;;;;;;;0.00;0.00;;;;;18.67;37.61;101117.44;5003282;28;45798;-80
2021/05/23 16:28:39;;;;;;;;;0.00;0.00;;;;;18.74;37.97;101109.94;5036924;28;46298;-80
2021/05/23 16:31:05;;;;;;;;;0.00;0.00;;;;;18.77;38.20;101108.88;5037662;28;46434;-81
2021/05/23 16:33:32;;;;;;;;;0.00;0.00;;;;;18.71;38.14;101111.94;5036582;28;45515;-81
2021/05/23 16:35:58;;;;;;;;;0.00;0.00;;;;;18.60;38.47;101108.13;5031231;28;45222;-81
2021/05/23 16:38:23;;;;;;;;;0.00;0.00;;;;;18.51;38.66;101098.06;5023344;28;47030;-81
2021/05/23 16:40:49;;;;;;;;;0.00;0.00;;;;;18.47;38.13;101088.56;5009869;28;67768;-81
2021/05/23 16:43:15;;;;;;;;;0.50;0.00;;;;;18.39;38.44;101087.22;5037599;28;45456;-81
2021/05/23 16:45:43;;;;;;;;;1.00;0.00;;;;;18.28;39.20;101095.84;5041038;28;45484;-81
2021/05/23 16:48:09;;;;;;;;;0.25;0.00;;;;;18.18;39.02;101091.97;5044572;28;56129;-81
2021/05/23 16:50:35;;;;;;;;;0.00;0.00;;;;;18.07;39.20;101088.19;5036894;28;45392;-81
2021/05/23 16:53:01;;;;;;;;;1.00;1.00;;;;;17.97;39.46;101087.88;5023310;28;45430;-81
2021/05/23 16:55:31;;;;;;;;;0.00;0.00;;;;;17.96;39.86;101080.81;5039207;28;45412;-81
2021/05/23 16:57:57;;;;;;;;;0.00;0.00;;;;;17.97;39.69;101089.66;5017095;28;45380;-81
2021/05/23 17:00:22;;;;;;;;;0.00;0.00;;;;;17.95;39.97;101089.75;5016112;28;62834;-82
2021/05/23 17:02:48;;;;;;;;;2.75;0.00;;;;;17.94;40.44;101085.38;5035421;28;49269;-81
2021/05/23 17:05:13;;;;;;;;;0.00;0.00;;;;;17.96;40.06;101091.47;5032513;28;52494;-81
2021/05/23 17:07:38;;;;;;;;;0.00;0.00;;;;;18.00;40.46;101084.19;5038279;28;46024;-81
2021/05/23 17:10:04;;;;;;;;;0.75;0.00;;;;;18.06;40.93;101096.22;5049682;28;52500;-80
2021/05/23 17:12:29;;;;;;;;;0.25;0.25;;;;;18.15;40.80;101085.03;5019253;28;45464;-80
2021/05/23 17:14:56;;;;;;;;;1.00;1.00;;;;;18.20;40.61;101083.00;5014166;28;55965;-80
2021/05/23 17:17:21;;;;;;;;;2.50;0.75;;;;;18.20;40.35;101085.66;5039172;28;45977;-80
2021/05/23 17:19:46;;;;;;;;;2.00;0.00;;;;;18.23;40.42;101073.97;5022609;28;55514;-81
2021/05/23 17:22:12;;;;;;;;;0.00;0.00;;;;;18.15;40.29;101068.25;5039546;28;45448;-81
2021/05/23 17:24:42;;;;;;;;;0.00;0.00;;;;;18.06;40.92;101065.19;5039777;28;51158;-82
2021/05/23 17:27:10;;;;;;;;;0.00;0.00;;;;;18.03;41.25;101077.78;5006153;28;45720;-80
2021/05/23 17:29:36;;;;;;;;;2.00;0.25;;;;;17.99;40.96;101075.34;5040365;28;45308;-80
2021/05/23 17:32:01;;;;;;;;;1.25;0.00;;;;;17.97;40.94;101076.38;5052061;28;45494;-80
2021/05/23 17:34:27;;;;;;;;;0.00;0.00;;;;;17.93;40.61;101070.38;5022743;28;45952;-80
2021/05/23 17:36:53;;;;;;;;;0.00;0.00;;;;;17.95;40.62;101060.50;5030403;28;47032;-80
2021/05/23 17:39:18;;;;;;;;;2.00;0.25;;;;;17.96;40.43;101070.19;5025408;28;45554;-79
2021/05/23 17:41:44;;;;;;;;;1.00;1.00;;;;;17.96;39.88;101056.91;5050231;28;52244;-80
2021/05/23 17:44:09;;;;;;;;;0.00;0.00;;;;;17.98;40.59;101062.97;5025175;28;46496;-80
2021/05/23 17:46:35;;;;;;;;;0.00;0.00;;;;;17.99;38.69;101063.84;5038968;28;46274;-80
2021/05/23 17:49:00;;;;;;;;;0.50;0.50;;;;;17.97;39.17;101060.41;5019587;28;46375;-80
2021/05/23 17:51:25;;;;;;;;;0.00;0.00;;;;;17.97;39.15;101065.72;5025687;28;45291;-80
2021/05/23 17:53:51;;;;;;;;;0.00;0.00;;;;;17.98;39.18;101062.97;5045446;28;57716;-80
2021/05/23 17:56:16;;;;;;;;;0.00;0.00;;;;;18.00;39.56;101071.72;5038126;28;45328;-80
2021/05/23 17:58:42;;;;;;;;;0.00;0.00;;;;;18.04;39.85;101072.41;5035778;28;61328;-80
2021/05/23 18:01:07;;;;;;;;;0.00;0.00;;;;;18.05;39.62;101065.28;5012576;28;45370;-82
2021/05/23 18:03:32;;;;;;;;;0.00;0.00;;;;;18.03;39.20;101057.38;5068262;28;47498;-79
2021/05/23 18:05:58;;;;;;;;;0.25;0.00;;;;;18.00;39.78;101065.56;5044720;28;45475;-80
2021/05/23 18:11:36;;;;;;;;;1.00;0.00;;;;;18.56;42.73;101045.41;5113253;27;45449;-77
2021/05/23 18:14:02;;;;;;;;;0.00;0.00;;;;;18.67;42.80;101040.25;5074992;27;45424;-73
2021/05/23 18:16:28;;;;;;;;;0.00;0.00;;;;;18.76;42.68;101037.97;5090240;27;45731;-73
2021/05/23 18:18:53;;;;;;;;;0.00;0.00;;;;;18.85;43.01;101034.72;5094887;27;45470;-73
2021/05/23 18:21:19;;;;;;;;;0.00;0.00;;;;;18.95;42.86;101032.31;5077512;27;45977;-73
2021/05/23 18:23:44;;;;;;;;;0.00;0.00;;;;;19.05;42.98;101031.72;5093852;27;45800;-73
2021/05/23 18:26:10;;;;;;;;;0.00;0.00;;;;;19.14;42.88;101041.78;5094909;27;49556;-74
2021/05/23 18:28:35;;;;;;;;;0.75;0.75;;;;;19.25;42.89;101032.25;5076224;27;45583;-74
2021/05/23 18:31:00;;;;;;;;;0.00;0.00;;;;;19.32;42.44;101029.09;5090360;27;52668;-77
2021/05/23 18:33:26;;;;;;;;;0.00;0.00;;;;;19.41;43.28;101040.13;5094903;27;55580;-73
2021/05/23 18:35:51;;;;;;;;;1.50;0.00;;;;;19.49;43.10;101051.13;5074960;27;51262;-74
2021/05/23 18:38:19;;;;;;;;;0.00;0.00;;;;;19.56;43.17;101041.75;5077531;27;54302;-72
2021/05/23 18:40:47;;;;;;;;;0.25;0.00;;;;;19.64;43.28;101040.38;5095702;27;45485;-72
2021/05/23 18:43:13;;;;;;;;;0.00;0.00;;;;;19.70;43.75;101033.78;5090193;27;45336;-73
2021/05/23 18:45:39;;;;;;;;;2.75;0.00;;;;;19.75;43.35;101042.34;5091080;27;45472;-72
2021/05/23 18:48:09;;;;;;;;;1.00;0.00;;;;;19.81;43.53;101039.25;5095328;27;45473;-73
2021/05/23 18:50:34;;;;;;;;;0.75;0.75;;;;;19.84;43.42;101035.50;5083828;27;45436;-74
2021/05/23 18:53:00;;;;;;;;;0.00;0.00;;;;;19.88;43.55;101032.53;5105971;27;45892;-75
2021/05/23 18:55:25;;;;;;;;;0.00;0.00;;;;;19.92;43.46;101043.84;5061355;27;45287;-75
2021/05/23 18:57:50;;;;;;;;;0.50;0.50;;;;;19.96;43.74;101033.81;5093166;27;61189;-73
2021/05/23 19:00:17;;;;;;;;;2.00;1.00;;;;;19.98;44.51;101024.75;5061506;27;55893;-75
2021/05/23 19:02:42;;;;;;;;;0.00;0.00;;;;;20.02;44.35;101034.28;5095635;27;45267;-75
2021/05/23 19:05:08;;;;;;;;;0.75;0.75;;;;;20.05;44.85;101030.50;5115498;27;53954;-75
2021/05/23 19:07:34;;;;;;;;;0.00;0.00;;;;;20.09;45.44;101036.50;5118778;27;45431;-74
2021/05/23 19:10:00;;;;;;;;;0.00;0.00;;;;;20.12;45.63;101023.81;5071363;27;46962;-75
2021/05/23 19:12:25;;;;;;;;;0.00;0.00;;;;;20.16;45.75;101029.81;5136901;27;44704;-75
2021/05/23 19:14:51;;;;;;;;;1.00;0.00;;;;;20.17;45.40;101020.84;5121979;27;44661;-75
2021/05/23 19:17:16;;;;;;;;;0.00;0.00;;;;;20.20;45.18;101023.28;5121639;27;44856;-76
2021/05/23 19:19:42;;;;;;;;;1.25;0.00;;;;;20.21;45.71;101010.81;5118750;27;60767;-76
2021/05/23 21:07:33;;;;;;;;;5.50;3.00;;;;;17.58;48.22;101006.84;5112511;27;45523;-86
2021/05/23 21:09:58;;;;;;;;;6.50;4.25;;;;;17.15;48.81;100995.97;5094576;27;45479;-87
2021/05/23 21:12:24;;;;;;;;;9.50;9.00;;;;;16.75;48.86;101010.50;5093597;27;61100;-82
2021/05/23 21:14:49;;;;;;;;;14.75;12.25;;;;;16.38;50.20;100992.13;5091473;27;45894;-82
2021/05/23 21:18:43;;;;;;;;;1.00;0.00;;;;;16.61;51.84;100986.53;5093235;27;45214;-68
2021/05/23 21:21:09;;;;;;;;;0.00;0.00;;;;;16.98;51.64;100980.97;5074837;28;45611;-67
2021/05/23 21:23:34;;;;;;;;;0.00;0.00;;;;;17.31;51.12;100980.00;5071371;28;45419;-67
2021/05/23 21:26:00;;;;;;;;;1.00;1.00;;;;;17.61;50.62;100974.75;5075538;27;45507;-68
2021/05/23 21:28:26;;;;;;;;;0.00;0.00;;;;;17.87;50.25;100978.53;5075746;27;62104;-70
2021/05/23 21:30:52;;;;;;;;;1.00;1.00;;;;;18.13;50.70;100979.69;5076480;27;45172;-69
2021/05/23 21:33:17;;;;;;;;;0.00;0.00;;;;;18.36;50.27;100975.66;5110608;27;45360;-69
2021/05/23 21:35:43;;;;;;;;;0.00;0.00;;;;;18.55;49.66;100974.47;5074537;27;46567;-70
2021/05/23 21:38:08;;;;;;;;;0.00;0.00;;;;;18.72;49.27;100972.53;5090327;27;45302;-70
2021/05/23 21:40:35;;;;;;;;;0.00;0.00;;;;;18.87;49.28;100962.72;5074825;28;45465;-70
2021/05/23 21:43:00;;;;;;;;;0.00;0.00;;;;;19.02;48.69;100963.53;5074701;27;46317;-72
2021/05/23 21:45:25;;;;;;;;;0.75;0.75;;;;;19.15;48.29;100966.25;5072846;28;63409;-69
2021/05/23 21:47:51;;;;;;;;;1.00;1.00;;;;;19.27;48.27;100971.72;5075033;28;45332;-69
2021/05/23 21:50:16;;;;;;;;;1.00;1.00;;;;;19.36;48.12;100962.28;5078737;27;45499;-70
2021/05/23 21:52:42;;;;;;;;;0.00;0.00;;;;;19.45;48.68;100964.31;5075720;28;55775;-70
2021/05/23 21:55:08;;;;;;;;;0.25;0.25;;;;;19.53;47.80;100963.81;5070968;27;52820;-70
2021/05/23 21:57:34;;;;;;;;;0.00;0.00;;;;;19.60;48.00;100969.56;5068610;28;45447;-70
